Time;durP1;ratioP1;P1;durP2;ratioP2;P2;SDS_P1;SDS_P2;PMS_P1;PMS_P2;Temp;Humidity;BMP_temperature;BMP_pressure;BME280_temperature;BME280_humidity;BME280_pressure;Samples;Min_cycle;Max_cycle;Signal;HPM_P1;HPM_P2
2021/03/11 00:00:45;;;;;;;29.63;17.90;;;;;;;8.24;69.54;99240.84;5063396;28;20496;-77
2021/03/11 00:03:12;;;;;;;27.90;17.80;;;;;;;8.08;69.10;99222.88;5064453;28;20467;-78
2021/03/11 00:05:39;;;;;;;28.10;19.23;;;;;;;7.90;70.26;99221.03;5064161;28;20476;-78
2021/03/11 00:08:06;;;;;;;31.27;19.10;;;;;;;8.06;69.65;99208.88;5064933;28;20463;-77
2021/03/11 00:10:32;;;;;;;30.77;18.77;;;;;;;8.11;69.40;99201.28;5063426;28;20499;-77
2021/03/11 00:12:59;;;;;;;28.33;18.10;;;;;;;8.20;69.02;99202.22;5064368;28;20449;-77
2021/03/11 00:15:26;;;;;;;29.97;19.43;;;;;;;8.04;70.07;99195.72;5062933;28;20457;-77
2021/03/11 00:17:52;;;;;;;28.40;18.33;;;;;;;8.18;69.44;99194.38;5064634;28;20443;-77
2021/03/11 00:20:21;;;;;;;26.40;18.40;;;;;;;7.83;69.91;99181.84;5063290;28;20475;-78
2021/03/11 00:22:47;;;;;;;29.17;20.30;;;;;;;7.79;71.13;99172.50;5063561;28;20465;-78
2021/03/11 00:25:15;;;;;;;32.10;19.20;;;;;;;8.02;70.34;99171.09;5062529;28;20471;-78
2021/03/11 00:27:42;;;;;;;32.90;18.87;;;;;;;7.91;70.00;99169.47;5054199;28;20469;-78
2021/03/11 00:30:10;;;;;;;27.97;18.87;;;;;;;8.16;69.97;99174.19;5045040;28;20984;-78
2021/03/11 00:32:38;;;;;;;30.43;19.40;;;;;;;7.79;70.61;99164.50;5062917;28;20464;-77
2021/03/11 00:35:04;;;;;;;31.70;24.27;;;;;;;7.64;70.80;99159.69;5062655;28;20453;-76
2021/03/11 00:37:31;;;;;;;30.13;19.50;;;;;;;8.00;70.66;99149.13;5063119;28;20489;-78
2021/03/11 00:39:57;;;;;;;30.77;22.23;;;;;;;8.19;69.76;99142.78;5063111;28;20452;-78
2021/03/11 00:42:23;;;;;;;34.33;20.50;;;;;;;8.02;71.03;99124.97;5063346;28;20477;-79
2021/03/11 00:44:49;;;;;;;32.80;20.13;;;;;;;7.63;72.73;99120.78;5054513;28;20452;-78
2021/03/11 00:47:17;;;;;;;30.87;21.07;;;;;;;7.67;72.91;99137.25;5063329;28;20516;-78
2021/03/11 00:49:44;;;;;;;29.70;21.93;;;;;;;7.41;73.08;99131.81;5064009;28;20512;-77
2021/03/11 00:52:12;;;;;;;29.03;19.73;;;;;;;7.56;73.11;99134.81;5062305;28;20477;-78
2021/03/11 00:54:38;;;;;;;33.57;20.33;;;;;;;7.91;72.45;99104.75;5063361;28;20457;-77
2021/03/11 00:57:05;;;;;;;31.37;18.50;;;;;;;7.76;72.36;99096.47;5062346;28;20531;-78
2021/03/11 00:59:31;;;;;;;35.03;20.60;;;;;;;7.80;72.44;99081.88;5062807;28;20495;-78
2021/03/11 01:01:57;;;;;;;30.83;21.10;;;;;;;7.59;72.83;99073.38;5062568;28;20499;-79
2021/03/11 01:04:23;;;;;;;29.37;19.30;;;;;;;7.79;72.10;99079.38;5062743;28;20452;-78
2021/03/11 01:06:50;;;;;;;33.17;20.20;;;;;;;7.90;71.06;99058.69;5062418;28;20472;-79
2021/03/11 01:09:17;;;;;;;24.40;15.25;;;;;;;7.80;71.38;99067.75;5063014;28;20856;-78
2021/03/11 01:11:43;;;;;;;29.07;18.40;;;;;;;7.77;71.29;99050.25;5061083;28;20484;-77
2021/03/11 01:14:10;;;;;;;33.80;24.07;;;;;;;7.64;71.43;99047.16;5062740;28;20457;-78
2021/03/11 01:16:36;;;;;;;28.07;18.77;;;;;;;7.62;71.31;99049.09;5062255;28;20863;-79
2021/03/11 01:19:03;;;;;;;26.67;17.77;;;;;;;7.89;71.08;99035.72;5063258;28;20448;-77
2021/03/11 01:21:29;;;;;;;29.63;21.07;;;;;;;7.49;72.04;99033.53;5062083;28;20980;-77
2021/03/11 01:23:57;;;;;;;26.17;18.57;;;;;;;8.00;70.48;99020.50;5062597;28;20445;-77
2021/03/11 01:26:24;;;;;;;29.90;18.23;;;;;;;8.02;69.95;99008.72;5060127;28;20506;-79
2021/03/11 01:28:50;;;;;;;24.70;17.70;;;;;;;8.18;69.60;99001.84;5062974;28;20526;-78
2021/03/11 01:31:16;;;;;;;25.07;18.20;;;;;;;8.13;69.17;98998.81;5062110;28;20539;-78
2021/03/11 01:33:42;;;;;;;25.47;17.90;;;;;;;8.21;69.01;99001.50;5062525;28;20441;-78
2021/03/11 01:36:08;;;;;;;26.23;17.73;;;;;;;8.30;68.69;98988.09;5062008;28;20713;-79
2021/03/11 01:38:35;;;;;;;24.50;17.27;;;;;;;8.15;69.15;98983.53;5063053;28;20457;-79
2021/03/11 01:41:02;;;;;;;25.50;17.10;;;;;;;8.22;68.50;98987.22;5061371;28;20493;-77
2021/03/11 01:43:28;;;;;;;23.80;17.43;;;;;;;8.16;68.86;98974.53;5062560;28;21128;-79
2021/03/11 01:45:54;;;;;;;32.10;17.37;;;;;;;8.19;69.07;98969.72;5061219;28;20517;-77
2021/03/11 01:48:21;;;;;;;25.90;19.00;;;;;;;8.24;70.09;98950.63;5062051;28;20445;-78
2021/03/11 01:50:47;;;;;;;23.17;15.73;;;;;;;8.08;71.30;98951.38;5061960;28;20957;-78
2021/03/11 01:53:13;;;;;;;31.73;17.90;;;;;;;7.95;71.72;98925.19;5061991;28;20491;-78
2021/03/11 01:55:39;;;;;;;24.77;17.70;;;;;;;8.01;71.73;98923.72;5061154;28;20473;-78
2021/03/11 01:58:06;;;;;;;28.23;18.43;;;;;;;7.77;71.92;98911.91;5061456;28;21038;-78
2021/03/11 02:00:33;;;;;;;29.37;18.90;;;;;;;8.21;71.42;98914.50;5060844;28;20465;-76
2021/03/11 02:02:59;;;;;;;25.50;17.63;;;;;;;7.87;71.55;98904.66;5062531;28;20453;-77
2021/03/11 02:05:26;;;;;;;33.80;20.47;;;;;;;8.08;70.98;98890.97;5061784;28;20468;-77
2021/03/11 02:07:52;;;;;;;26.73;18.00;;;;;;;8.30;70.18;98900.25;5061760;28;20460;-79
2021/03/11 02:10:22;;;;;;;31.60;18.67;;;;;;;8.20;70.44;98875.56;5060899;28;20524;-76
2021/03/11 02:13:03;;;;;;;30.63;20.30;;;;;;;8.39;70.68;98863.81;5061489;28;20475;-78
2021/03/11 02:15:31;;;;;;;28.37;18.20;;;;;;;8.47;70.30;98868.38;5061573;28;20615;-77
2021/03/11 02:18:04;;;;;;;25.80;18.50;;;;;;;8.40;70.50;98859.31;5062085;28;20484;-77
2021/03/11 02:20:39;;;;;;;32.50;21.57;;;;;;;8.18;70.75;98850.94;5060800;28;21183;-76
2021/03/11 02:23:22;;;;;;;32.37;18.97;;;;;;;8.04;72.04;98851.53;5040669;28;20477;-77
2021/03/11 02:25:57;;;;;;;25.13;18.33;;;;;;;8.06;71.69;98852.22;5059520;28;20476;-76
2021/03/11 02:28:28;;;;;;;29.40;19.80;;;;;;;8.10;71.96;98843.72;5061432;28;20464;-77
2021/03/11 02:30:56;;;;;;;28.73;20.43;;;;;;;7.87;72.60;98854.09;5061182;28;20544;-78
2021/03/11 02:33:23;;;;;;;28.23;17.80;;;;;;;8.48;70.95;98830.09;5061723;28;20441;-77
2021/03/11 02:35:52;;;;;;;27.30;17.27;;;;;;;8.33;71.00;98840.50;5060869;28;20485;-77
2021/03/11 02:38:19;;;;;;;28.00;18.20;;;;;;;8.53;70.59;98822.44;5061442;28;20472;-78
2021/03/11 02:40:46;;;;;;;28.00;15.70;;;;;;;8.24;71.32;98810.34;5060054;28;20480;-80
2021/03/11 02:43:13;;;;;;;31.03;20.77;;;;;;;7.99;71.31;98808.59;5060996;28;20828;-79
2021/03/11 02:45:40;;;;;;;27.60;17.53;;;;;;;8.23;70.77;98800.69;5061191;28;20536;-79
2021/03/11 02:48:09;;;;;;;28.60;19.53;;;;;;;8.27;70.12;98788.72;5061641;28;20433;-78
2021/03/11 02:50:37;;;;;;;26.47;16.53;;;;;;;8.56;69.76;98792.81;5060134;28;20485;-78
2021/03/11 02:53:04;;;;;;;23.63;15.67;;;;;;;8.37;69.45;98777.13;5061186;28;20953;-77
2021/03/11 02:55:32;;;;;;;24.77;16.73;;;;;;;8.57;69.07;98775.84;5060379;28;20477;-77
2021/03/11 02:57:59;;;;;;;24.30;16.27;;;;;;;8.72;68.50;98759.22;5060189;28;20472;-78
2021/03/11 03:00:27;;;;;;;25.97;16.40;;;;;;;8.43;68.69;98742.69;5060545;28;20461;-78
2021/03/11 03:02:53;;;;;;;19.20;15.73;;;;;;;8.54;68.29;98730.91;5060945;28;20480;-78
2021/03/11 03:05:22;;;;;;;23.97;15.40;;;;;;;8.48;68.20;98716.38;5060615;28;20425;-77
2021/03/11 03:07:49;;;;;;;20.93;14.17;;;;;;;8.61;68.04;98710.59;5060973;28;20471;-80
2021/03/11 03:10:17;;;;;;;19.60;14.03;;;;;;;8.80;67.41;98696.09;5059284;28;20480;-79
2021/03/11 03:12:44;;;;;;;19.90;14.13;;;;;;;8.85;67.24;98691.09;5061405;28;20449;-79
2021/03/11 03:15:13;;;;;;;17.07;12.57;;;;;;;8.76;67.35;98680.59;5060169;28;20441;-79
2021/03/11 03:17:39;;;;;;;21.13;13.77;;;;;;;8.93;66.49;98671.59;5061296;28;20432;-81
2021/03/11 03:20:08;;;;;;;22.10;12.97;;;;;;;8.88;66.72;98667.78;5060480;28;20471;-78
2021/03/11 03:22:36;;;;;;;19.97;13.70;;;;;;;8.77;67.28;98674.28;5060354;28;20449;-76
2021/03/11 03:25:04;;;;;;;18.97;12.63;;;;;;;8.81;65.94;98664.94;5061064;28;20484;-78
2021/03/11 03:27:30;;;;;;;20.17;12.40;;;;;;;8.75;66.91;98657.63;5060372;28;20457;-80
2021/03/11 03:29:56;;;;;;;23.40;13.50;;;;;;;9.17;65.40;98660.06;5061234;28;20484;-79
2021/03/11 03:32:23;;;;;;;14.00;10.10;;;;;;;8.96;65.97;98639.28;5059725;28;20477;-80
2021/03/11 03:34:49;;;;;;;17.13;12.40;;;;;;;9.15;65.44;98658.53;5064147;28;20433;-79
2021/03/11 03:37:15;;;;;;;16.80;12.13;;;;;;;9.19;64.97;98659.88;5063776;28;20526;-78
2021/03/11 03:39:42;;;;;;;15.33;11.50;;;;;;;9.49;64.43;98644.94;5065190;28;20487;-79
2021/03/11 03:42:12;;;;;;;14.83;10.80;;;;;;;9.08;65.21;98620.25;5064021;28;20492;-77
2021/03/11 03:44:41;;;;;;;14.10;11.30;;;;;;;9.11;65.14;98599.41;5064531;28;20444;-78
2021/03/11 03:47:09;;;;;;;17.33;11.70;;;;;;;9.44;64.22;98609.94;5064703;28;20506;-77
2021/03/11 03:49:35;;;;;;;14.00;10.77;;;;;;;9.56;64.18;98613.88;5064930;28;20437;-78
2021/03/11 03:52:02;;;;;;;17.80;9.50;;;;;;;9.79;63.38;98627.28;5062825;28;21027;-78
2021/03/11 03:54:30;;;;;;;14.80;10.20;;;;;;;9.33;64.40;98616.50;5064310;28;20457;-78
2021/03/11 03:57:01;;;;;;;13.07;9.13;;;;;;;9.52;64.02;98633.09;5063997;28;20469;-79
2021/03/11 03:59:30;;;;;;;12.70;9.17;;;;;;;9.33;64.85;98627.16;5064379;28;20472;-78
2021/03/11 04:01:57;;;;;;;12.30;9.17;;;;;;;9.64;64.17;98639.72;5064019;28;20476;-78
2021/03/11 04:04:26;;;;;;;15.00;9.50;;;;;;;9.60;64.55;98633.88;5064539;28;20451;-79
2021/03/11 04:06:53;;;;;;;13.57;10.37;;;;;;;9.56;64.77;98632.56;5063359;28;21253;-81
2021/03/11 04:09:21;;;;;;;13.27;9.63;;;;;;;9.51;64.99;98631.41;5064601;28;20979;-78
2021/03/11 04:11:48;;;;;;;9.77;8.20;;;;;;;9.36;65.12;98618.81;5063462;28;20539;-78
2021/03/11 04:14:16;;;;;;;14.00;10.57;;;;;;;9.29;65.53;98609.84;5064201;28;20468;-78
2021/03/11 04:16:43;;;;;;;13.40;9.63;;;;;;;9.50;65.16;98619.09;5063605;28;20507;-79
2021/03/11 04:19:10;;;;;;;14.57;9.70;;;;;;;9.27;66.30;98617.19;5064647;28;20459;-78
2021/03/11 04:21:36;;;;;;;14.33;9.90;;;;;;;9.49;66.66;98610.25;5062469;28;20499;-79
2021/03/11 04:24:04;;;;;;;12.40;8.90;;;;;;;9.11;68.19;98602.06;5064295;28;21085;-77
2021/03/11 04:26:30;;;;;;;14.73;9.67;;;;;;;9.02;68.32;98592.44;5062993;28;21042;-78
2021/03/11 04:28:58;;;;;;;14.17;10.87;;;;;;;9.37;68.64;98599.16;5063920;28;20432;-79
2021/03/11 04:31:26;;;;;;;14.23;9.93;;;;;;;9.38;68.52;98607.97;5062421;28;20491;-78
2021/03/11 04:33:52;;;;;;;15.70;10.37;;;;;;;9.13;68.67;98597.41;5064036;28;20453;-76
2021/03/11 04:36:19;;;;;;;16.87;11.10;;;;;;;9.17;69.46;98588.06;5063532;28;20515;-78
2021/03/11 04:38:45;;;;;;;18.53;11.20;;;;;;;9.04;69.82;98593.09;5063922;28;20441;-78
2021/03/11 04:41:12;;;;;;;13.87;9.80;;;;;;;9.31;68.96;98583.00;5062710;28;20505;-76
2021/03/11 04:43:39;;;;;;;16.00;10.13;;;;;;;9.21;69.50;98584.03;5064022;28;20844;-77
2021/03/11 04:46:06;;;;;;;13.90;10.10;;;;;;;9.13;69.41;98588.56;5062063;28;20508;-75
2021/03/11 04:48:34;;;;;;;14.63;9.90;;;;;;;9.32;69.21;98568.66;5064114;28;20425;-76
2021/03/11 04:51:01;;;;;;;14.93;9.90;;;;;;;9.19;69.48;98570.03;5062381;28;20496;-76
2021/03/11 04:53:27;;;;;;;14.17;10.10;;;;;;;9.22;68.99;98575.03;5062944;28;20456;-77
2021/03/11 04:55:54;;;;;;;15.80;10.73;;;;;;;9.45;68.61;98568.94;5062500;28;20465;-76
2021/03/11 04:58:20;;;;;;;17.87;10.10;;;;;;;9.51;67.79;98578.91;5062471;28;20480;-76
2021/03/11 05:00:48;;;;;;;17.47;10.73;;;;;;;9.39;68.23;98575.81;5062632;28;20487;-76
2021/03/11 05:03:15;;;;;;;13.03;8.17;;;;;;;9.30;68.88;98571.50;5063430;28;20453;-78
2021/03/11 05:05:43;;;;;;;14.50;9.50;;;;;;;9.29;68.41;98558.34;5062808;28;20476;-76
2021/03/11 05:08:10;;;;;;;14.80;10.37;;;;;;;9.61;67.72;98558.16;5062441;28;20984;-77
2021/03/11 05:10:37;;;;;;;15.30;10.10;;;;;;;9.64;67.83;98582.84;5062322;28;20487;-77
2021/03/11 05:13:04;;;;;;;15.27;9.87;;;;;;;9.28;68.24;98567.34;5063061;28;20433;-75
2021/03/11 05:15:30;;;;;;;13.60;9.07;;;;;;;9.51;68.23;98586.94;5055167;28;20465;-77
2021/03/11 05:17:56;;;;;;;14.23;8.33;;;;;;;9.71;67.25;98578.47;5060839;28;20915;-77
2021/03/11 05:20:24;;;;;;;13.80;7.83;;;;;;;9.30;68.74;98579.50;5060892;28;20433;-76
2021/03/11 05:22:51;;;;;;;13.03;9.10;;;;;;;9.55;69.23;98566.06;5061479;28;20487;-76
2021/03/11 05:25:17;;;;;;;10.33;7.50;;;;;;;9.39;70.20;98573.13;5059645;28;20441;-76
2021/03/11 05:27:43;;;;;;;17.80;9.93;;;;;;;9.47;70.37;98552.75;5061928;28;20487;-77
2021/03/11 05:30:12;;;;;;;14.70;10.17;;;;;;;9.39;69.47;98556.28;5060981;28;20489;-76
2021/03/11 05:32:39;;;;;;;13.20;7.63;;;;;;;9.12;70.45;98549.59;5048976;28;20485;-76
2021/03/11 05:35:06;;;;;;;15.93;9.60;;;;;;;9.43;69.63;98539.75;5049212;28;20824;-76
2021/03/11 05:37:33;;;;;;;13.70;10.27;;;;;;;9.36;69.05;98554.81;5054680;28;20841;-76
2021/03/11 05:40:00;;;;;;;14.50;9.13;;;;;;;9.70;68.71;98545.59;5061042;28;20456;-76
2021/03/11 05:42:26;;;;;;;12.30;9.00;;;;;;;9.48;68.54;98543.72;5060740;28;20480;-76
2021/03/11 05:44:53;;;;;;;12.40;9.10;;;;;;;9.56;69.06;98538.34;5061787;28;20440;-76
2021/03/11 05:47:20;;;;;;;13.10;8.63;;;;;;;9.61;68.97;98522.66;5060871;28;20536;-77
2021/03/11 05:49:46;;;;;;;11.80;8.53;;;;;;;9.43;68.99;98538.94;5060802;28;20520;-77
2021/03/11 05:52:14;;;;;;;13.20;7.67;;;;;;;9.39;70.11;98534.94;5060557;28;20555;-78
2021/03/11 05:54:40;;;;;;;9.80;8.10;;;;;;;9.44;70.31;98532.59;5055986;28;20453;-77
2021/03/11 05:57:08;;;;;;;12.00;8.07;;;;;;;9.48;70.92;98528.56;5055646;28;20491;-77
2021/03/11 05:59:35;;;;;;;11.80;8.30;;;;;;;9.47;70.65;98523.41;5061483;28;20459;-77
2021/03/11 06:02:05;;;;;;;13.27;8.50;;;;;;;9.65;71.18;98523.94;5052961;28;20481;-78
2021/03/11 06:04:32;;;;;;;9.60;8.47;;;;;;;9.25;71.40;98517.84;5062522;28;20449;-77
2021/03/11 06:07:02;;;;;;;12.57;7.10;;;;;;;9.17;71.92;98517.91;5061228;28;20481;-78
2021/03/11 06:09:29;;;;;;;14.00;6.43;;;;;;;9.67;70.93;98508.63;5059354;28;20453;-77
2021/03/11 06:11:56;;;;;;;8.87;6.40;;;;;;;9.49;72.10;98506.22;5060348;28;20510;-77
2021/03/11 06:14:26;;;;;;;10.60;7.37;;;;;;;9.14;72.88;98496.94;5061416;28;20456;-77
2021/03/11 06:16:59;;;;;;;11.57;6.73;;;;;;;9.15;73.26;98499.41;5058555;28;20477;-78
2021/03/11 06:19:25;;;;;;;10.80;6.50;;;;;;;9.29;72.34;98489.84;5056726;28;20440;-75
2021/03/11 06:21:52;;;;;;;12.00;6.33;;;;;;;9.08;73.39;98469.13;5068538;28;20496;-75
2021/03/11 06:24:18;;;;;;;9.13;7.33;;;;;;;9.36;72.77;98479.31;5047881;28;20456;-76
2021/03/11 06:26:44;;;;;;;10.33;7.07;;;;;;;9.16;73.68;98462.91;5060311;28;20481;-76
2021/03/11 06:29:10;;;;;;;8.90;6.40;;;;;;;9.29;73.42;98457.84;5060338;28;20448;-77
2021/03/11 06:31:38;;;;;;;8.07;5.73;;;;;;;9.30;74.11;98448.00;5059732;28;20484;-76
2021/03/11 06:34:19;;;;;;;7.50;6.00;;;;;;;9.32;73.51;98422.84;5061258;28;20445;-76
2021/03/11 06:36:45;;;;;;;8.27;5.40;;;;;;;9.14;74.12;98425.75;5053029;28;21011;-76
2021/03/11 06:39:23;;;;;;;6.70;5.37;;;;;;;9.39;73.38;98421.13;5053779;28;20465;-77
2021/03/11 06:41:49;;;;;;;6.90;5.87;;;;;;;9.61;72.68;98416.75;5058712;28;20506;-77
2021/03/11 06:44:15;;;;;;;7.83;6.60;;;;;;;9.24;73.63;98423.69;5051647;28;20504;-78
2021/03/11 06:46:56;;;;;;;8.83;6.70;;;;;;;9.80;72.73;98438.63;5039855;28;21126;-77
2021/03/11 06:49:22;;;;;;;8.13;5.00;;;;;;;9.52;73.43;98417.84;5051874;28;21022;-74
2021/03/11 06:51:49;;;;;;;8.93;6.53;;;;;;;9.57;73.00;98443.97;5052674;28;20485;-75
2021/03/11 06:54:15;;;;;;;8.40;5.83;;;;;;;9.63;72.38;98432.59;5053445;28;20464;-75
2021/03/11 06:56:42;;;;;;;8.73;6.20;;;;;;;9.66;72.83;98423.41;5059983;28;20481;-74
2021/03/11 06:59:08;;;;;;;7.70;6.37;;;;;;;9.61;73.18;98430.09;5052010;28;20572;-75
2021/03/11 07:01:36;;;;;;;8.77;5.90;;;;;;;9.73;72.89;98430.50;5058613;28;20479;-74
2021/03/11 07:04:04;;;;;;;8.43;6.17;;;;;;;9.98;72.23;98440.94;5057240;28;20445;-74
2021/03/11 07:06:33;;;;;;;6.83;5.13;;;;;;;9.94;72.01;98427.13;5060399;28;20480;-76
2021/03/11 07:09:00;;;;;;;6.70;5.13;;;;;;;9.81;72.63;98421.59;5059421;28;20445;-74
2021/03/11 07:11:27;;;;;;;7.10;5.90;;;;;;;9.88;72.58;98433.22;5053769;28;20485;-74
2021/03/11 07:13:55;;;;;;;7.20;5.83;;;;;;;9.76;72.67;98422.13;5060233;28;20443;-74
2021/03/11 07:16:23;;;;;;;6.57;5.10;;;;;;;9.66;72.88;98421.56;5059582;28;20559;-74
2021/03/11 07:19:10;;;;;;;5.87;4.70;;;;;;;9.97;71.91;98424.09;5044288;28;20488;-75
2021/03/11 07:21:42;;;;;;;6.27;5.10;;;;;;;9.78;72.46;98392.59;5048106;28;20488;-73
2021/03/11 07:24:09;;;;;;;7.30;5.30;;;;;;;9.87;72.13;98401.38;5058513;28;20514;-74
2021/03/11 07:26:35;;;;;;;7.10;5.17;;;;;;;10.08;71.68;98393.47;5050272;28;20563;-74
2021/03/11 07:29:23;;;;;;;5.20;4.30;;;;;;;9.76;72.26;98390.13;5054933;28;21195;-76
2021/03/11 07:31:54;;;;;;;6.27;5.03;;;;;;;10.00;71.40;98374.88;5051383;28;20488;-74
2021/03/11 07:34:25;;;;;;;4.00;3.60;;;;;;;9.93;71.91;98388.13;5056846;28;20464;-75
2021/03/11 07:36:57;;;;;;;5.60;4.50;;;;;;;10.09;71.15;98381.78;5057316;28;20471;-75
2021/03/11 07:39:26;;;;;;;5.00;4.17;;;;;;;10.34;70.30;98378.84;5058466;28;20599;-75
2021/03/11 07:41:53;;;;;;;5.03;4.00;;;;;;;10.09;70.43;98365.75;5058118;28;20576;-77
2021/03/11 07:44:19;;;;;;;4.50;3.90;;;;;;;10.08;71.08;98376.63;5058870;28;20457;-76
2021/03/11 07:46:46;;;;;;;4.73;4.23;;;;;;;10.37;69.99;98378.50;5058373;28;20750;-75
2021/03/11 07:49:13;;;;;;;4.73;3.70;;;;;;;10.27;70.01;98377.91;5058672;28;20498;-76
2021/03/11 07:51:39;;;;;;;4.40;3.90;;;;;;;10.11;70.44;98374.41;5057751;28;20489;-76
2021/03/11 07:54:07;;;;;;;5.23;3.80;;;;;;;10.13;70.21;98360.88;5059154;28;20457;-76
2021/03/11 07:56:33;;;;;;;4.90;4.10;;;;;;;10.09;70.86;98370.28;5057970;28;20473;-77
2021/03/11 07:59:03;;;;;;;8.23;3.77;;;;;;;10.27;70.42;98359.22;5057613;28;20555;-76
2021/03/11 08:01:31;;;;;;;4.60;4.07;;;;;;;10.01;71.25;98354.34;5056664;28;20555;-76
2021/03/11 08:03:58;;;;;;;4.63;4.00;;;;;;;10.13;71.12;98356.34;5059015;28;20551;-75
2021/03/11 08:06:28;;;;;;;4.27;3.87;;;;;;;10.34;70.86;98360.97;5053753;28;20468;-75
2021/03/11 08:08:55;;;;;;;5.27;4.13;;;;;;;10.30;71.25;98361.53;5059563;28;20495;-75
2021/03/11 08:11:36;;;;;;;6.40;3.73;;;;;;;10.30;71.71;98370.34;5058149;28;20484;-75
2021/03/11 08:14:22;;;;;;;4.60;3.70;;;;;;;10.44;70.98;98362.56;5057905;28;20532;-77
2021/03/11 08:16:49;;;;;;;6.67;4.00;;;;;;;10.37;71.06;98351.78;5057539;28;20475;-75
2021/03/11 08:19:48;;;;;;;5.70;4.60;;;;;;;10.34;71.42;98352.16;5059578;28;20478;-75
2021/03/11 08:22:14;;;;;;;6.73;4.10;;;;;;;10.51;70.98;98355.44;5058521;28;20472;-74
2021/03/11 08:24:45;;;;;;;4.90;3.90;;;;;;;10.85;69.57;98353.97;5061092;28;20475;-74
2021/03/11 08:27:41;;;;;;;4.87;4.10;;;;;;;10.61;70.15;98361.31;5062407;28;20529;-75
2021/03/11 08:30:50;;;;;;;6.50;4.47;;;;;;;10.50;71.01;98365.31;5062236;28;20467;-75
2021/03/11 08:33:41;;;;;;;5.20;4.70;;;;;;;10.53;71.81;98353.41;5062321;28;20532;-76
2021/03/11 08:36:09;;;;;;;9.93;4.27;;;;;;;10.40;72.54;98353.25;5061384;28;20479;-75
2021/03/11 08:38:39;;;;;;;5.00;3.80;;;;;;;10.25;72.73;98358.56;5063060;28;20464;-75
2021/03/11 08:41:08;;;;;;;9.27;5.00;;;;;;;10.15;73.54;98367.66;5061671;28;20494;-75
2021/03/11 08:43:51;;;;;;;5.30;4.53;;;;;;;10.48;72.37;98359.31;5062113;28;21033;-75
2021/03/11 08:46:19;;;;;;;8.47;4.83;;;;;;;10.48;72.38;98359.31;5061761;28;20480;-74
2021/03/11 08:48:47;;;;;;;5.43;4.30;;;;;;;10.02;73.57;98338.13;5062269;28;20799;-75
2021/03/11 08:51:37;;;;;;;5.07;4.40;;;;;;;10.22;72.81;98330.38;5061012;28;20807;-76
2021/03/11 08:54:04;;;;;;;4.73;4.27;;;;;;;10.64;71.89;98344.94;5062432;28;20459;-74
2021/03/11 08:56:44;;;;;;;5.07;4.43;;;;;;;10.77;71.37;98308.66;5060885;28;20841;-75
2021/03/11 08:59:15;;;;;;;4.80;3.90;;;;;;;10.77;69.98;98306.00;5061112;28;20689;-76
2021/03/11 09:01:44;;;;;;;4.93;3.23;;;;;;;11.25;69.03;98304.41;5061374;28;20488;-75
2021/03/11 09:04:39;;;;;;;5.00;3.20;;;;;;;11.33;68.32;98294.56;5060347;28;20456;-76
2021/03/11 09:07:07;;;;;;;6.90;3.50;;;;;;;11.50;68.11;98286.06;5056313;28;20826;-75
2021/03/11 09:09:54;;;;;;;3.43;3.13;;;;;;;11.95;66.42;98283.06;5056815;28;20456;-76
2021/03/11 09:12:24;;;;;;;3.30;3.00;;;;;;;12.87;63.93;98285.47;5037642;28;20481;-76
2021/03/11 09:14:54;;;;;;;3.47;2.50;;;;;;;13.03;62.58;98278.88;5018793;28;20461;-75
2021/03/11 09:17:21;;;;;;;3.13;2.70;;;;;;;12.67;63.09;98275.50;5025514;28;20487;-76
2021/03/11 09:19:48;;;;;;;4.27;3.23;;;;;;;13.04;61.94;98261.75;5038642;28;20500;-76
2021/03/11 09:22:23;;;;;;;7.10;2.80;;;;;;;13.15;61.51;98272.69;5038059;28;20482;-75
2021/03/11 09:25:14;;;;;;;3.33;2.80;;;;;;;12.80;61.98;98242.53;5039030;28;20982;-76
2021/03/11 09:27:51;;;;;;;3.60;3.03;;;;;;;12.46;63.90;98246.19;5014849;28;20467;-75
2021/03/11 09:30:20;;;;;;;2.70;2.27;;;;;;;12.58;63.21;98242.69;5037122;28;20488;-76
2021/03/11 09:32:46;;;;;;;2.63;2.43;;;;;;;12.71;63.31;98249.97;5058381;28;20461;-74
2021/03/11 09:35:13;;;;;;;4.50;3.33;;;;;;;12.84;62.08;98240.28;5060368;28;20452;-75
2021/03/11 09:37:47;;;;;;;2.80;2.40;;;;;;;12.48;63.38;98244.13;5061197;28;20464;-75
2021/03/11 09:40:17;;;;;;;3.13;2.40;;;;;;;12.54;63.01;98237.97;5058927;28;20445;-76
2021/03/11 09:43:18;;;;;;;4.30;2.93;;;;;;;12.99;62.34;98236.38;5058526;28;20460;-75
2021/03/11 09:45:51;;;;;;;3.43;2.33;;;;;;;12.90;61.81;98224.19;5037954;28;21011;-75
2021/03/11 09:48:20;;;;;;;3.67;2.77;;;;;;;12.36;63.39;98235.84;5037867;28;20553;-77
2021/03/11 09:51:05;;;;;;;2.93;2.63;;;;;;;12.84;62.46;98224.19;5036973;28;20732;-76
2021/03/11 09:53:34;;;;;;;3.20;2.60;;;;;;;12.73;62.33;98225.63;5037926;28;20493;-76
2021/03/11 09:56:00;;;;;;;2.90;2.53;;;;;;;12.49;63.31;98200.22;5035333;28;20631;-76
2021/03/11 09:58:27;;;;;;;6.63;2.80;;;;;;;12.42;63.95;98237.72;5037513;28;20529;-75
2021/03/11 10:00:55;;;;;;;4.97;2.20;;;;;;;12.37;64.17;98237.50;5037030;28;21110;-75
2021/03/11 10:03:24;;;;;;;5.47;2.90;;;;;;;12.21;65.60;98209.22;5038587;28;20446;-77
2021/03/11 10:05:55;;;;;;;6.60;2.90;;;;;;;12.39;66.10;98201.44;5034386;28;20891;-74
2021/03/11 10:08:27;;;;;;;3.80;3.13;;;;;;;12.31;65.22;98222.22;5038019;28;20447;-75
2021/03/11 10:11:05;;;;;;;4.60;3.30;;;;;;;12.15;65.85;98201.97;5036474;28;21008;-75
2021/03/11 10:13:33;;;;;;;3.10;2.80;;;;;;;12.34;64.32;98219.16;5037017;28;20461;-76
2021/03/11 10:16:00;;;;;;;4.50;3.40;;;;;;;12.56;63.58;98185.78;5037330;28;20476;-76
2021/03/11 10:18:27;;;;;;;3.20;2.60;;;;;;;12.65;62.36;98181.06;5037167;28;20475;-76
2021/03/11 10:21:00;;;;;;;4.60;2.93;;;;;;;12.96;62.68;98201.91;5056318;28;20474;-75
2021/03/11 10:23:26;;;;;;;3.93;2.73;;;;;;;12.86;63.11;98200.66;5040267;28;20438;-75
2021/03/11 10:26:22;;;;;;;3.10;2.83;;;;;;;12.57;63.61;98208.91;5052385;28;20983;-77
2021/03/11 10:28:49;;;;;;;3.10;2.20;;;;;;;12.42;64.28;98209.06;5060286;28;20449;-75
2021/03/11 10:31:17;;;;;;;4.50;2.73;;;;;;;12.91;63.18;98222.34;5057149;28;20485;-74
2021/03/11 10:33:44;;;;;;;3.97;3.07;;;;;;;12.72;63.07;98203.34;5060109;28;20449;-76
2021/03/11 10:36:14;;;;;;;5.00;3.00;;;;;;;13.02;62.15;98186.00;5060061;28;20506;-75
2021/03/11 10:38:40;;;;;;;5.30;2.83;;;;;;;13.18;61.84;98197.16;5059179;28;20452;-76
2021/03/11 10:41:12;;;;;;;5.97;3.27;;;;;;;13.15;62.28;98181.47;5058890;28;20469;-75
2021/03/11 10:43:41;;;;;;;4.53;2.87;;;;;;;13.52;60.65;98183.72;5058986;28;20468;-75
2021/03/11 10:46:08;;;;;;;4.07;2.50;;;;;;;13.32;60.84;98187.25;5059486;28;20475;-76
2021/03/11 10:48:53;;;;;;;3.60;2.57;;;;;;;12.84;60.92;98192.00;5060612;28;20572;-76
2021/03/11 10:51:23;;;;;;;4.40;2.83;;;;;;;12.95;61.17;98175.28;5078945;28;21031;-76
2021/03/11 10:53:50;;;;;;;5.97;2.83;;;;;;;13.55;60.03;98159.13;5079363;28;20467;-76
2021/03/11 10:56:17;;;;;;;5.10;2.40;;;;;;;14.01;59.70;98150.06;5059567;28;20480;-75
2021/03/11 10:58:44;;;;;;;3.77;2.60;;;;;;;14.95;55.55;98141.41;5058527;28;20503;-75
2021/03/11 11:01:13;;;;;;;8.17;3.20;;;;;;;15.50;53.80;98122.63;5058207;28;20481;-75
2021/03/11 11:03:40;;;;;;;6.00;2.53;;;;;;;14.57;56.71;98129.66;5053658;28;20503;-76
2021/03/11 11:06:08;;;;;;;3.03;2.20;;;;;;;15.23;54.48;98133.66;5058499;28;20461;-77
2021/03/11 11:08:34;;;;;;;5.80;2.60;;;;;;;14.66;55.69;98125.69;5059662;28;20459;-78
2021/03/11 11:11:01;;;;;;;4.10;2.10;;;;;;;15.12;54.36;98126.31;5058137;28;20491;-77
2021/03/11 11:13:28;;;;;;;4.47;2.10;;;;;;;15.52;53.19;98114.28;5059295;28;20520;-77
2021/03/11 11:15:54;;;;;;;3.83;2.10;;;;;;;14.73;54.48;98127.50;5057030;28;20979;-77
2021/03/11 11:18:21;;;;;;;5.97;2.03;;;;;;;14.10;55.42;98142.59;5059889;28;20599;-76
2021/03/11 11:20:48;;;;;;;8.03;2.10;;;;;;;14.32;55.64;98138.53;5058127;28;20472;-76
2021/03/11 11:23:15;;;;;;;5.53;1.73;;;;;;;14.18;55.10;98146.88;5058929;28;20832;-74
2021/03/11 11:25:42;;;;;;;8.97;1.93;;;;;;;14.27;54.77;98143.72;5051410;28;20588;-74
2021/03/11 11:28:08;;;;;;;8.93;2.90;;;;;;;14.68;54.34;98153.16;5055931;28;20453;-73
2021/03/11 11:30:35;;;;;;;6.10;2.60;;;;;;;15.19;52.81;98142.38;5058602;28;20477;-74
2021/03/11 11:33:01;;;;;;;5.90;2.80;;;;;;;14.78;51.90;98130.34;5058189;28;20472;-74
2021/03/11 11:35:28;;;;;;;9.50;2.60;;;;;;;14.84;52.67;98141.06;5059048;28;20468;-74
2021/03/11 11:37:54;;;;;;;7.60;2.20;;;;;;;15.11;50.96;98124.66;5057775;28;20555;-74
2021/03/11 11:40:22;;;;;;;7.20;2.73;;;;;;;14.42;52.30;98137.22;5049901;28;20464;-74